CheckWX is a tool to help pilots better visualize weather data.  It is not intended as a substitute for an official pre-flight weather briefing.

22:36:41 UTC

KBBG METAR
Branson Airport
Branson, Missouri, USA
Current

39 mins ago

KBBG 052158Z 13009KT 10SM BKN100 15/00 A2991
Observed
Dec-5 @ 21:58 UTC
Wind
  • 130° at 9 KTS
Visibility
10 SM
Flight Rules
VFR
Cloud Levels
  • Broken at 10,000' AGL
Temperature
15°C / 59°F
Dewpoint
C / 32°F
Humidity
36%
Altimeter
29.91" Hg
Pressure
1012.92 hPa
Previous

2 hours ago

KBBG 052047Z 16010KT 10SM BKN100 16/M01 A2991
Observed
Dec-5 @ 20:47 UTC
Wind
  • 160° at 10 KTS
Visibility
10 SM
Flight Rules
VFR
Cloud Levels
  • Broken at 10,000' AGL
Temperature
16°C / 61°F
Dewpoint
-1°C / 30°F
Humidity
31%
Altimeter
29.91" Hg
Pressure
1012.92 hPa
Previous

3 hours ago

KBBG 051945Z 14010KT 10SM BKN100 16/00 A2992
Observed
Dec-5 @ 19:45 UTC
Wind
  • 140° at 10 KTS
Visibility
10 SM
Flight Rules
VFR
Cloud Levels
  • Broken at 10,000' AGL
Temperature
16°C / 61°F
Dewpoint
C / 32°F
Humidity
34%
Altimeter
29.92" Hg
Pressure
1013.22 hPa